Time;durP1;ratioP1;P1;durP2;ratioP2;P2;SDS_P1;SDS_P2;PMS_P1;PMS_P2;Temp;Humidity;BMP_temperature;BMP_pressure;BME280_temperature;BME280_humidity;BME280_pressure;Samples;Min_cycle;Max_cycle;Signal;HPM_P1;HPM_P2
2022/01/06 00:02:05;;;;;;;11.05;2.85;;;;;;;;;;5003568;28;20042;-66
2022/01/06 00:04:50;;;;;;;8.98;3.53;;;;;;;;;;4996733;28;20022;-63
2022/01/06 00:07:36;;;;;;;11.43;3.33;;;;;;;;;;5007203;28;20038;-74
2022/01/06 00:10:23;;;;;;;10.77;3.10;;;;;;;;;;4988981;28;20045;-71
2022/01/06 00:13:13;;;;;;;10.23;3.40;;;;;;;;;;4997888;28;20044;-71
2022/01/06 00:16:16;;;;;;;8.88;3.42;;;;;;;;;;5020640;28;20038;-73
2022/01/06 00:24:51;;;;;;;11.57;3.53;;;;;;;;;;4990187;28;20041;-67
2022/01/06 00:27:36;;;;;;;10.13;3.25;;;;;;;;;;4990021;28;20361;-63
2022/01/06 00:30:21;;;;;;;19.00;4.43;;;;;;;;;;4996492;28;20034;-66
2022/01/06 00:33:07;;;;;;;14.27;3.05;;;;;;;;;;5009852;28;20360;-65
2022/01/06 00:35:52;;;;;;;9.18;2.95;;;;;;;;;;4996544;28;20033;-65
2022/01/06 00:38:37;;;;;;;11.68;3.00;;;;;;;;;;4993865;28;20033;-65
2022/01/06 00:41:23;;;;;;;9.32;3.33;;;;;;;;;;4987367;28;20033;-64
2022/01/06 00:44:08;;;;;;;11.30;3.17;;;;;;;;;;5011679;28;20034;-73
2022/01/06 00:46:54;;;;;;;11.45;3.53;;;;;;;;;;5010058;28;20029;-61
2022/01/06 00:49:39;;;;;;;10.00;2.55;;;;;;;;;;5005015;28;20028;-61
2022/01/06 00:52:24;;;;;;;9.45;2.97;;;;;;;;;;5006129;28;20037;-61
2022/01/06 00:55:10;;;;;;;12.10;3.65;;;;;;;;;;5011191;28;20144;-64
2022/01/06 00:57:55;;;;;;;8.13;3.28;;;;;;;;;;5002642;28;20030;-63
2022/01/06 01:00:41;;;;;;;9.88;4.47;;;;;;;;;;4991486;28;20057;-66
2022/01/06 01:03:27;;;;;;;10.80;3.78;;;;;;;;;;4977925;28;20026;-67
2022/01/06 01:06:12;;;;;;;10.75;3.08;;;;;;;;;;4975425;28;20038;-62
2022/01/06 01:08:57;;;;;;;9.98;2.80;;;;;;;;;;5011378;28;20435;-62
2022/01/06 01:11:43;;;;;;;8.82;3.13;;;;;;;;;;4993337;28;20093;-62
2022/01/06 01:14:31;;;;;;;9.68;3.25;;;;;;;;;;4989466;28;20027;-63
2022/01/06 01:17:17;;;;;;;20.95;4.95;;;;;;;;;;5005010;28;20480;-65
2022/01/06 01:20:03;;;;;;;12.80;3.30;;;;;;;;;;4979572;28;20031;-62
2022/01/06 01:22:48;;;;;;;6.97;2.75;;;;;;;;;;4984940;28;20116;-72
2022/01/06 01:25:33;;;;;;;6.82;3.42;;;;;;;;;;5010845;28;20065;-71
2022/01/06 01:28:19;;;;;;;9.55;2.78;;;;;;;;;;5009604;28;20388;-71
2022/01/06 01:31:19;;;;;;;11.00;3.35;;;;;;;;;;4983012;28;20027;-70
2022/01/06 01:34:09;;;;;;;9.88;3.28;;;;;;;;;;4990260;28;20038;-75
2022/01/06 01:36:55;;;;;;;15.75;2.75;;;;;;;;;;4992241;28;20480;-72
2022/01/06 01:39:40;;;;;;;9.07;2.63;;;;;;;;;;5009259;28;20046;-68
2022/01/06 01:42:26;;;;;;;9.35;2.65;;;;;;;;;;4987445;28;20100;-65
2022/01/06 01:45:11;;;;;;;11.38;3.38;;;;;;;;;;4956971;28;20074;-65
2022/01/06 01:47:59;;;;;;;14.38;3.15;;;;;;;;;;4973497;28;20521;-66
2022/01/06 01:50:44;;;;;;;10.18;3.33;;;;;;;;;;4996239;28;20618;-64
2022/01/06 01:53:30;;;;;;;8.95;2.75;;;;;;;;;;4993395;28;20121;-65
2022/01/06 01:56:15;;;;;;;10.82;3.30;;;;;;;;;;5010102;28;20030;-65
2022/01/06 01:59:01;;;;;;;8.00;2.65;;;;;;;;;;5003230;28;20033;-64
2022/01/06 02:01:46;;;;;;;6.43;3.00;;;;;;;;;;5005131;28;20037;-65
2022/01/06 02:04:31;;;;;;;10.10;3.50;;;;;;;;;;5000815;28;20033;-65
2022/01/06 02:07:17;;;;;;;12.48;3.72;;;;;;;;;;5023801;28;20041;-65
2022/01/06 02:10:06;;;;;;;8.82;2.70;;;;;;;;;;5008197;28;20161;-65
2022/01/06 02:12:54;;;;;;;13.23;3.90;;;;;;;;;;4990052;28;20570;-66
2022/01/06 02:15:39;;;;;;;9.85;2.70;;;;;;;;;;5017554;28;20061;-67
2022/01/06 02:18:25;;;;;;;11.52;3.00;;;;;;;;;;4990300;28;20045;-62
2022/01/06 02:21:11;;;;;;;9.50;3.35;;;;;;;;;;5006046;28;20041;-60
2022/01/06 02:23:56;;;;;;;11.02;3.20;;;;;;;;;;5009555;28;20061;-61
2022/01/06 02:26:41;;;;;;;8.57;2.83;;;;;;;;;;4991382;28;20325;-62
2022/01/06 02:29:26;;;;;;;9.48;3.28;;;;;;;;;;4990107;28;20162;-62
2022/01/06 02:32:16;;;;;;;6.22;2.70;;;;;;;;;;5010297;28;20513;-64
2022/01/06 02:35:03;;;;;;;9.30;3.40;;;;;;;;;;5006564;28;20518;-64
2022/01/06 02:37:48;;;;;;;9.55;3.20;;;;;;;;;;5010777;28;20052;-69
2022/01/06 02:40:33;;;;;;;13.43;3.63;;;;;;;;;;4991231;28;20030;-67
2022/01/06 02:43:20;;;;;;;11.57;3.28;;;;;;;;;;4990218;28;20034;-67
2022/01/06 02:46:05;;;;;;;7.50;3.25;;;;;;;;;;4982584;28;20301;-68
2022/01/06 02:48:50;;;;;;;13.35;3.53;;;;;;;;;;5009403;28;20396;-67
2022/01/06 02:51:36;;;;;;;9.20;3.42;;;;;;;;;;4998513;28;20037;-67
2022/01/06 02:54:21;;;;;;;7.00;3.13;;;;;;;;;;5022845;28;20777;-72
2022/01/06 02:57:08;;;;;;;13.05;3.40;;;;;;;;;;5005994;28;20040;-62
2022/01/06 02:59:53;;;;;;;9.60;2.60;;;;;;;;;;4989604;28;20034;-61
2022/01/06 03:02:41;;;;;;;9.82;2.88;;;;;;;;;;5002126;28;20136;-60
2022/01/06 03:05:26;;;;;;;8.88;2.35;;;;;;;;;;4975772;28;20047;-60
2022/01/06 03:08:11;;;;;;;5.53;2.38;;;;;;;;;;4988232;28;20416;-61
2022/01/06 03:10:57;;;;;;;9.15;2.88;;;;;;;;;;4989233;28;20053;-72
2022/01/06 03:13:42;;;;;;;9.98;3.30;;;;;;;;;;4983270;28;20027;-68
2022/01/06 03:16:28;;;;;;;11.65;3.78;;;;;;;;;;4975146;28;20557;-72
2022/01/06 03:19:13;;;;;;;11.48;3.72;;;;;;;;;;5006497;28;20049;-73
2022/01/06 03:21:58;;;;;;;8.30;3.05;;;;;;;;;;4990852;28;20495;-70
2022/01/06 03:24:43;;;;;;;9.70;2.63;;;;;;;;;;5008313;28;20088;-71
2022/01/06 03:27:29;;;;;;;7.97;2.72;;;;;;;;;;5007155;28;20071;-70
2022/01/06 03:30:16;;;;;;;10.55;3.30;;;;;;;;;;5022434;28;20034;-72
2022/01/06 03:33:01;;;;;;;8.55;3.13;;;;;;;;;;5007084;28;20037;-72
2022/01/06 03:35:47;;;;;;;11.88;3.10;;;;;;;;;;4998684;28;20035;-67
2022/01/06 03:38:32;;;;;;;7.82;2.50;;;;;;;;;;4979683;28;20054;-67
2022/01/06 03:41:17;;;;;;;8.93;2.88;;;;;;;;;;4988885;28;20151;-69
2022/01/06 03:44:03;;;;;;;7.90;3.88;;;;;;;;;;4987297;28;20121;-69
2022/01/06 03:46:48;;;;;;;9.13;2.95;;;;;;;;;;4975509;28;20030;-68
2022/01/06 03:49:33;;;;;;;6.68;2.97;;;;;;;;;;4998528;28;20479;-61
2022/01/06 03:52:18;;;;;;;10.52;2.83;;;;;;;;;;5002580;28;20038;-73
2022/01/06 03:55:08;;;;;;;8.30;3.35;;;;;;;;;;5006086;28;20097;-73
2022/01/06 03:57:53;;;;;;;6.75;2.33;;;;;;;;;;4972728;28;20019;-73
2022/01/06 04:00:38;;;;;;;10.20;3.40;;;;;;;;;;4969100;28;20066;-74
2022/01/06 04:03:23;;;;;;;6.57;2.40;;;;;;;;;;4977916;28;20039;-72
2022/01/06 04:06:10;;;;;;;8.07;3.53;;;;;;;;;;5006350;28;20022;-66
2022/01/06 04:08:55;;;;;;;7.80;2.83;;;;;;;;;;5005434;28;20361;-72
2022/01/06 04:11:40;;;;;;;6.25;2.80;;;;;;;;;;4994266;28;20476;-73
2022/01/06 04:14:26;;;;;;;9.93;2.80;;;;;;;;;;4993128;28;20132;-72
2022/01/06 04:17:11;;;;;;;8.25;2.85;;;;;;;;;;5021797;28;20423;-75
2022/01/06 04:19:56;;;;;;;7.53;2.75;;;;;;;;;;4982200;28;20431;-71
2022/01/06 04:22:41;;;;;;;7.22;2.60;;;;;;;;;;4973603;28;20088;-75
2022/01/06 04:25:27;;;;;;;9.07;2.50;;;;;;;;;;5000440;28;20030;-70
2022/01/06 04:28:12;;;;;;;7.90;2.40;;;;;;;;;;5008115;28;20476;-67
2022/01/06 04:30:57;;;;;;;8.35;2.50;;;;;;;;;;5007285;28;20065;-67
2022/01/06 04:33:43;;;;;;;16.98;7.40;;;;;;;;;;5008274;28;20180;-68
2022/01/06 04:36:28;;;;;;;7.85;3.08;;;;;;;;;;5019790;28;20109;-69
2022/01/06 04:39:13;;;;;;;6.22;2.63;;;;;;;;;;5012536;28;20072;-68
2022/01/06 04:41:59;;;;;;;6.47;2.88;;;;;;;;;;5020444;28;20054;-68
2022/01/06 04:44:44;;;;;;;8.18;2.72;;;;;;;;;;5007878;28;20471;-66
2022/01/06 04:47:29;;;;;;;10.98;3.95;;;;;;;;;;4967370;28;20465;-69
2022/01/06 04:50:14;;;;;;;7.00;2.80;;;;;;;;;;4980057;28;20433;-70
2022/01/06 04:53:00;;;;;;;6.97;2.95;;;;;;;;;;5007894;28;20282;-70
2022/01/06 04:55:45;;;;;;;9.43;3.08;;;;;;;;;;4995464;28;20535;-70
2022/01/06 04:58:32;;;;;;;7.03;2.58;;;;;;;;;;4990301;28;20039;-68
2022/01/06 05:01:17;;;;;;;6.10;3.20;;;;;;;;;;4981586;28;20045;-68
2022/01/06 05:04:03;;;;;;;8.75;2.83;;;;;;;;;;4963056;28;20081;-70
2022/01/06 05:06:50;;;;;;;9.05;3.10;;;;;;;;;;4983250;28;20040;-71
2022/01/06 05:09:36;;;;;;;5.45;2.20;;;;;;;;;;5025383;28;20376;-70
2022/01/06 05:12:22;;;;;;;7.13;2.50;;;;;;;;;;4989312;28;20035;-70
2022/01/06 05:15:07;;;;;;;9.13;3.13;;;;;;;;;;5012124;28;20038;-70
2022/01/06 05:17:53;;;;;;;6.95;2.78;;;;;;;;;;5023139;28;20395;-70
2022/01/06 05:20:42;;;;;;;10.55;3.25;;;;;;;;;;4998606;28;20077;-68
2022/01/06 05:23:27;;;;;;;10.07;3.13;;;;;;;;;;5021704;28;20380;-62
2022/01/06 05:26:13;;;;;;;4.90;2.40;;;;;;;;;;5012250;28;20035;-62
2022/01/06 05:28:58;;;;;;;5.55;2.45;;;;;;;;;;5010818;28;20219;-61
2022/01/06 05:31:43;;;;;;;7.03;3.17;;;;;;;;;;5023340;28;20488;-62
2022/01/06 05:34:29;;;;;;;11.02;2.58;;;;;;;;;;4990790;28;20460;-61
2022/01/06 05:37:16;;;;;;;8.32;2.40;;;;;;;;;;4992479;28;21256;-63
2022/01/06 05:40:02;;;;;;;8.57;2.70;;;;;;;;;;4971011;28;20050;-65
2022/01/06 05:42:49;;;;;;;9.40;2.97;;;;;;;;;;4969654;28;20030;-67
2022/01/06 05:45:34;;;;;;;10.90;3.28;;;;;;;;;;4989616;28;20420;-67
2022/01/06 05:48:19;;;;;;;6.93;2.50;;;;;;;;;;4998154;28;20040;-67
2022/01/06 05:51:05;;;;;;;8.27;2.55;;;;;;;;;;4992865;28;20066;-68
2022/01/06 05:53:51;;;;;;;8.50;2.80;;;;;;;;;;5000410;28;20040;-66
2022/01/06 05:56:36;;;;;;;7.47;3.92;;;;;;;;;;5010319;28;20045;-70
2022/01/06 05:59:22;;;;;;;9.30;2.72;;;;;;;;;;4998498;28;20058;-64
2022/01/06 06:02:07;;;;;;;5.53;2.53;;;;;;;;;;4963627;28;20046;-62
2022/01/06 06:04:53;;;;;;;7.63;2.70;;;;;;;;;;5005096;28;20030;-62
2022/01/06 06:07:38;;;;;;;6.18;2.25;;;;;;;;;;5009560;28;20463;-63
2022/01/06 06:10:23;;;;;;;11.23;3.70;;;;;;;;;;4990699;28;20464;-61
2022/01/06 06:13:08;;;;;;;7.90;3.00;;;;;;;;;;4991675;28;20547;-61
2022/01/06 06:15:54;;;;;;;7.13;2.42;;;;;;;;;;4976454;28;20033;-71
2022/01/06 06:18:39;;;;;;;8.95;2.83;;;;;;;;;;5022012;28;20100;-62
2022/01/06 06:21:25;;;;;;;10.73;2.80;;;;;;;;;;5004181;28;20069;-61
2022/01/06 06:24:10;;;;;;;7.22;2.90;;;;;;;;;;4990548;28;20077;-62
2022/01/06 06:26:55;;;;;;;7.93;3.47;;;;;;;;;;5009891;28;20045;-62
2022/01/06 06:29:50;;;;;;;7.45;2.65;;;;;;;;;;5022214;28;20036;-62
2022/01/06 06:32:35;;;;;;;9.95;3.72;;;;;;;;;;5023424;28;20034;-72
2022/01/06 06:35:20;;;;;;;9.48;3.13;;;;;;;;;;5005814;28;20053;-60
2022/01/06 06:38:05;;;;;;;6.50;2.67;;;;;;;;;;4970657;28;20033;-61
2022/01/06 06:40:51;;;;;;;9.65;3.33;;;;;;;;;;4974795;28;20515;-61
2022/01/06 06:43:36;;;;;;;7.50;3.60;;;;;;;;;;4989944;28;20046;-61
2022/01/06 06:46:22;;;;;;;9.13;3.22;;;;;;;;;;5003456;28;20412;-61
2022/01/06 06:49:07;;;;;;;9.35;3.00;;;;;;;;;;5007626;28;20033;-61
2022/01/06 06:51:52;;;;;;;9.15;3.15;;;;;;;;;;5005642;28;20282;-66
2022/01/06 06:54:38;;;;;;;6.68;2.97;;;;;;;;;;5020343;28;20480;-70
2022/01/06 06:57:23;;;;;;;6.28;3.10;;;;;;;;;;5003781;28;20038;-71
2022/01/06 07:00:09;;;;;;;11.95;3.58;;;;;;;;;;4988740;28;20030;-73
2022/01/06 07:02:54;;;;;;;7.63;2.78;;;;;;;;;;5005261;28;20033;-71
2022/01/06 07:05:39;;;;;;;5.65;2.65;;;;;;;;;;5004133;28;20493;-71
2022/01/06 07:08:25;;;;;;;4.72;2.15;;;;;;;;;;5009255;28;20034;-73
2022/01/06 07:11:10;;;;;;;6.25;3.05;;;;;;;;;;4983408;28;20130;-61
2022/01/06 07:13:55;;;;;;;8.88;2.92;;;;;;;;;;4958420;28;20586;-66
2022/01/06 07:16:40;;;;;;;7.90;2.88;;;;;;;;;;4987271;28;20042;-70
2022/01/06 07:19:26;;;;;;;8.13;2.63;;;;;;;;;;5004098;28;20042;-69
2022/01/06 07:22:11;;;;;;;6.95;2.80;;;;;;;;;;4993190;28;20048;-68
2022/01/06 07:24:56;;;;;;;7.20;3.17;;;;;;;;;;5022412;28;20037;-67
2022/01/06 07:27:42;;;;;;;9.40;3.00;;;;;;;;;;5020861;28;20344;-71
2022/01/06 07:30:30;;;;;;;5.10;2.15;;;;;;;;;;5008518;28;20088;-64
2022/01/06 07:33:15;;;;;;;9.27;2.90;;;;;;;;;;5021012;28;20112;-71
2022/01/06 07:36:00;;;;;;;7.50;2.97;;;;;;;;;;4981579;28;20030;-71
2022/01/06 07:38:45;;;;;;;8.65;2.33;;;;;;;;;;4995439;28;20421;-70
2022/01/06 07:41:31;;;;;;;7.07;2.75;;;;;;;;;;4989815;28;20034;-70
2022/01/06 07:44:16;;;;;;;9.85;3.95;;;;;;;;;;4974300;28;20493;-70
2022/01/06 07:47:01;;;;;;;8.50;2.80;;;;;;;;;;5002633;28;20038;-69
2022/01/06 07:49:47;;;;;;;8.18;2.45;;;;;;;;;;4985726;28;20405;-62
2022/01/06 07:52:32;;;;;;;9.25;2.63;;;;;;;;;;4986617;28;20030;-63
2022/01/06 07:55:17;;;;;;;8.55;3.38;;;;;;;;;;4979718;28;20034;-62
2022/01/06 07:58:03;;;;;;;20.90;8.57;;;;;;;;;;4976606;28;20026;-64
2022/01/06 08:00:48;;;;;;;13.48;6.95;;;;;;;;;;5006525;28;20036;-62
2022/01/06 08:03:33;;;;;;;7.57;3.00;;;;;;;;;;5002124;28;20365;-61
2022/01/06 08:06:19;;;;;;;10.75;3.75;;;;;;;;;;5008346;28;20038;-63
2022/01/06 08:09:04;;;;;;;9.60;3.58;;;;;;;;;;4993077;28;20088;-62
2022/01/06 08:11:49;;;;;;;6.60;2.90;;;;;;;;;;5008150;28;20544;-61
2022/01/06 08:14:35;;;;;;;9.05;2.88;;;;;;;;;;5007078;28;20221;-61
2022/01/06 08:17:20;;;;;;;9.30;2.97;;;;;;;;;;4992954;28;20041;-62
2022/01/06 08:20:06;;;;;;;11.50;3.55;;;;;;;;;;4996969;28;20042;-61
2022/01/06 08:22:51;;;;;;;6.97;3.00;;;;;;;;;;4988211;28;20477;-63
2022/01/06 08:25:37;;;;;;;8.77;3.17;;;;;;;;;;5000216;28;20037;-66
2022/01/06 08:28:22;;;;;;;16.67;3.92;;;;;;;;;;5007234;28;20069;-69
2022/01/06 08:31:07;;;;;;;10.00;3.22;;;;;;;;;;4983151;28;20037;-67
2022/01/06 08:33:53;;;;;;;6.55;2.95;;;;;;;;;;5025712;28;20107;-67
2022/01/06 08:36:38;;;;;;;6.18;3.08;;;;;;;;;;5023539;28;20113;-68
2022/01/06 08:39:23;;;;;;;9.35;2.97;;;;;;;;;;4987460;28;20120;-68
2022/01/06 08:42:09;;;;;;;45.47;27.65;;;;;;;;;;4959191;28;20362;-67
2022/01/06 08:44:54;;;;;;;12.93;4.85;;;;;;;;;;4973409;28;20026;-68
2022/01/06 08:47:40;;;;;;;9.00;3.30;;;;;;;;;;4996107;28;20112;-69
2022/01/06 08:50:25;;;;;;;12.73;3.83;;;;;;;;;;4993543;28;20408;-71
2022/01/06 08:53:10;;;;;;;9.75;3.22;;;;;;;;;;5010705;28;20030;-70
2022/01/06 08:55:55;;;;;;;10.93;3.17;;;;;;;;;;5006493;28;20113;-69
2022/01/06 08:58:41;;;;;;;7.35;2.92;;;;;;;;;;4994020;28;20037;-69
2022/01/06 09:01:27;;;;;;;25.38;11.32;;;;;;;;;;4996402;28;20124;-63
2022/01/06 09:04:12;;;;;;;20.25;7.97;;;;;;;;;;4999969;28;20036;-62
2022/01/06 09:06:58;;;;;;;10.38;3.22;;;;;;;;;;5004554;28;20030;-61
2022/01/06 09:09:43;;;;;;;11.13;3.72;;;;;;;;;;4987814;28;20046;-65
2022/01/06 09:12:29;;;;;;;13.57;3.83;;;;;;;;;;5011563;28;20045;-62
2022/01/06 09:15:14;;;;;;;11.43;3.42;;;;;;;;;;4995422;28;20044;-61
2022/01/06 09:17:59;;;;;;;8.25;3.20;;;;;;;;;;5009734;28;20408;-62
2022/01/06 09:20:44;;;;;;;9.57;3.15;;;;;;;;;;5010197;28;20033;-61
2022/01/06 09:23:30;;;;;;;10.15;3.60;;;;;;;;;;5006769;28;20038;-63
2022/01/06 09:26:16;;;;;;;9.00;3.45;;;;;;;;;;5012245;28;20040;-61
2022/01/06 09:29:05;;;;;;;9.00;3.45;;;;;;;;;;5007707;28;20463;-62
2022/01/06 09:31:50;;;;;;;10.88;3.28;;;;;;;;;;5010821;28;20400;-62
2022/01/06 09:34:36;;;;;;;11.18;4.72;;;;;;;;;;5008447;28;20594;-64
2022/01/06 09:37:21;;;;;;;8.60;3.75;;;;;;;;;;4991889;28;20045;-73
2022/01/06 09:40:08;;;;;;;12.68;4.05;;;;;;;;;;4977454;28;20392;-71
2022/01/06 09:42:54;;;;;;;11.90;3.45;;;;;;;;;;4979552;28;20034;-74
2022/01/06 09:45:40;;;;;;;13.45;3.80;;;;;;;;;;4989079;28;20031;-73
2022/01/06 09:48:26;;;;;;;14.13;3.13;;;;;;;;;;4996838;28;20030;-72
2022/01/06 09:51:11;;;;;;;7.03;2.67;;;;;;;;;;4994214;28;20065;-71
2022/01/06 09:53:58;;;;;;;10.98;3.05;;;;;;;;;;5001780;28;20033;-75
2022/01/06 09:56:43;;;;;;;15.48;3.75;;;;;;;;;;5011294;28;20562;-68
2022/01/06 09:59:28;;;;;;;9.98;2.97;;;;;;;;;;5002361;28;20037;-65
2022/01/06 10:02:17;;;;;;;7.65;2.60;;;;;;;;;;5010562;28;20391;-62
2022/01/06 10:05:03;;;;;;;9.70;3.00;;;;;;;;;;5004984;28;20033;-61
2022/01/06 10:07:48;;;;;;;6.82;2.72;;;;;;;;;;5006495;28;20376;-62
2022/01/06 10:10:34;;;;;;;6.95;2.60;;;;;;;;;;4989545;28;20046;-62
2022/01/06 10:13:20;;;;;;;10.07;3.60;;;;;;;;;;4990755;28;20046;-61
2022/01/06 10:16:12;;;;;;;9.40;4.68;;;;;;;;;;5008263;28;20036;-61
2022/01/06 10:19:11;;;;;;;10.18;3.65;;;;;;;;;;5008594;28;20117;-69
2022/01/06 10:21:57;;;;;;;8.38;3.25;;;;;;;;;;4976314;28;20038;-68
2022/01/06 10:24:44;;;;;;;8.35;2.85;;;;;;;;;;4995584;28;20042;-69
2022/01/06 10:27:29;;;;;;;11.43;3.95;;;;;;;;;;5010964;28;20033;-67
2022/01/06 10:30:15;;;;;;;8.48;3.38;;;;;;;;;;5007189;28;20034;-68
2022/01/06 10:33:01;;;;;;;10.55;2.88;;;;;;;;;;5023149;28;20038;-64
2022/01/06 10:35:47;;;;;;;13.93;2.85;;;;;;;;;;5007303;28;20088;-68
2022/01/06 10:38:32;;;;;;;11.63;3.13;;;;;;;;;;5018756;28;20027;-70
2022/01/06 10:41:17;;;;;;;13.73;3.33;;;;;;;;;;4974502;28;20053;-69
2022/01/06 10:44:03;;;;;;;14.93;3.50;;;;;;;;;;4989344;28;20034;-68
2022/01/06 10:46:50;;;;;;;12.10;3.22;;;;;;;;;;5006526;28;20391;-69
2022/01/06 10:49:35;;;;;;;10.38;3.80;;;;;;;;;;5017189;28;20031;-69
2022/01/06 10:52:26;;;;;;;7.75;3.22;;;;;;;;;;5007512;28;20385;-64
2022/01/06 10:55:13;;;;;;;11.40;2.70;;;;;;;;;;5008272;28;20434;-69
2022/01/06 10:58:09;;;;;;;13.30;3.17;;;;;;;;;;4975572;28;20133;-69
2022/01/06 11:00:56;;;;;;;8.40;2.70;;;;;;;;;;4992252;28;20061;-71
2022/01/06 11:03:41;;;;;;;13.13;3.35;;;;;;;;;;4998744;28;20102;-70
2022/01/06 11:06:26;;;;;;;17.88;3.47;;;;;;;;;;4979311;28;20411;-70
2022/01/06 11:09:12;;;;;;;10.93;3.08;;;;;;;;;;4976203;28;20038;-72
2022/01/06 11:14:46;;;;;;;11.27;2.40;;;;;;;;;;4977741;28;20099;-68
2022/01/06 11:17:31;;;;;;;20.63;3.55;;;;;;;;;;5006537;28;20038;-69
2022/01/06 11:20:27;;;;;;;11.50;3.50;;;;;;;;;;4997757;28;20481;-68
2022/01/06 11:23:20;;;;;;;9.38;3.78;;;;;;;;;;4976344;28;20044;-67
2022/01/06 11:26:12;;;;;;;9.40;2.55;;;;;;;;;;5008850;28;20030;-68
2022/01/06 11:28:59;;;;;;;13.13;4.03;;;;;;;;;;4969537;28;20030;-65
2022/01/06 11:31:44;;;;;;;16.48;3.10;;;;;;;;;;4957604;28;20420;-66
2022/01/06 11:34:35;;;;;;;17.55;3.20;;;;;;;;;;5007744;28;20426;-68
2022/01/06 11:37:21;;;;;;;13.10;3.55;;;;;;;;;;4990408;28;20030;-67
2022/01/06 11:40:06;;;;;;;11.48;2.47;;;;;;;;;;4987997;28;20121;-64
2022/01/06 11:42:53;;;;;;;11.15;3.08;;;;;;;;;;4996695;28;20261;-66
2022/01/06 11:45:39;;;;;;;11.68;2.60;;;;;;;;;;4981724;28;20026;-71
2022/01/06 11:48:24;;;;;;;14.30;3.17;;;;;;;;;;5020743;28;20037;-62
2022/01/06 11:51:20;;;;;;;15.32;2.60;;;;;;;;;;4990047;28;20034;-63
2022/01/06 11:54:16;;;;;;;9.40;2.50;;;;;;;;;;4974431;28;20168;-62
2022/01/06 11:57:02;;;;;;;9.23;2.60;;;;;;;;;;5020982;28;20121;-61
2022/01/06 11:59:47;;;;;;;9.23;2.40;;;;;;;;;;4973831;28;20632;-61
2022/01/06 12:02:32;;;;;;;12.20;3.35;;;;;;;;;;5001604;28;20088;-64
2022/01/06 12:05:17;;;;;;;13.98;3.03;;;;;;;;;;5010557;28;20480;-67
2022/01/06 12:08:03;;;;;;;11.80;3.10;;;;;;;;;;4996687;28;20109;-62
2022/01/06 12:10:49;;;;;;;10.20;2.53;;;;;;;;;;4993045;28;20042;-61
2022/01/06 12:13:44;;;;;;;12.27;3.08;;;;;;;;;;4949828;28;20065;-63
2022/01/06 12:16:32;;;;;;;15.18;3.60;;;;;;;;;;5012331;28;20057;-63
2022/01/06 12:19:18;;;;;;;10.48;3.88;;;;;;;;;;5008226;28;20026;-62
2022/01/06 12:22:04;;;;;;;14.65;2.72;;;;;;;;;;4992656;28;20465;-62
2022/01/06 12:24:57;;;;;;;10.00;2.75;;;;;;;;;;5001299;28;20468;-68
2022/01/06 12:27:43;;;;;;;13.57;3.40;;;;;;;;;;5012242;28;20092;-76
2022/01/06 12:30:33;;;;;;;8.90;3.17;;;;;;;;;;5010757;28;20704;-73
2022/01/06 12:33:21;;;;;;;13.15;3.00;;;;;;;;;;5005041;28;20038;-73
2022/01/06 12:36:06;;;;;;;11.10;2.92;;;;;;;;;;4981461;28;20042;-74
2022/01/06 12:38:52;;;;;;;10.73;3.22;;;;;;;;;;4993689;28;20030;-75
2022/01/06 12:41:37;;;;;;;10.27;3.40;;;;;;;;;;5012465;28;20100;-68
2022/01/06 12:44:24;;;;;;;10.13;3.05;;;;;;;;;;5012053;28;20038;-75
2022/01/06 12:47:09;;;;;;;13.10;3.17;;;;;;;;;;4972288;28;20568;-75
2022/01/06 12:49:58;;;;;;;12.65;2.85;;;;;;;;;;4979470;28;20089;-74
2022/01/06 12:52:47;;;;;;;11.70;3.28;;;;;;;;;;5012465;28;20038;-72
2022/01/06 12:55:32;;;;;;;14.52;3.45;;;;;;;;;;5010185;28;20044;-73
2022/01/06 12:58:24;;;;;;;12.95;2.67;;;;;;;;;;4993181;28;20034;-72
2022/01/06 13:01:10;;;;;;;8.98;2.40;;;;;;;;;;4989220;28;20034;-71
2022/01/06 13:03:56;;;;;;;13.55;3.70;;;;;;;;;;4999546;28;20034;-74
2022/01/06 13:06:42;;;;;;;11.00;2.65;;;;;;;;;;4984008;28;20037;-74
2022/01/06 13:09:32;;;;;;;9.80;3.25;;;;;;;;;;4991865;28;20104;-73
2022/01/06 13:12:17;;;;;;;;;;;;;;;;;;5006292;28;20520;-72
2022/01/06 13:15:02;;;;;;;11.07;3.85;;;;;;;;;;4997271;28;19964;-73
2022/01/06 13:17:48;;;;;;;13.52;2.53;;;;;;;;;;5009039;28;20528;-71
2022/01/06 13:20:37;;;;;;;11.13;2.53;;;;;;;;;;4996058;28;20035;-73
2022/01/06 13:26:21;;;;;;;12.50;2.38;;;;;;;;;;4976127;28;20050;-70
2022/01/06 13:29:08;;;;;;;15.38;3.13;;;;;;;;;;5007642;28;20030;-68
2022/01/06 13:31:59;;;;;;;12.48;3.08;;;;;;;;;;4994901;28;20034;-69
2022/01/06 13:34:45;;;;;;;9.73;2.78;;;;;;;;;;4994401;28;20169;-66
2022/01/06 13:37:31;;;;;;;12.60;3.03;;;;;;;;;;4976060;28;20026;-61
2022/01/06 13:40:16;;;;;;;10.85;2.30;;;;;;;;;;5000984;28;20117;-67
2022/01/06 13:43:02;;;;;;;9.75;2.60;;;;;;;;;;5009534;28;20410;-68
2022/01/06 13:45:49;;;;;;;11.85;2.50;;;;;;;;;;5010809;28;20063;-68
2022/01/06 13:48:41;;;;;;;8.35;2.50;;;;;;;;;;5009277;28;20041;-70
2022/01/06 13:51:28;;;;;;;11.68;3.80;;;;;;;;;;5004606;28;20038;-68
2022/01/06 13:54:13;;;;;;;11.82;2.33;;;;;;;;;;5007091;28;20406;-68
2022/01/06 13:57:09;;;;;;;7.97;2.72;;;;;;;;;;4996284;28;20072;-75
2022/01/06 13:59:56;;;;;;;10.30;3.30;;;;;;;;;;4971490;28;20114;-68
2022/01/06 14:02:41;;;;;;;11.30;3.78;;;;;;;;;;4972965;28;20066;-67
2022/01/06 14:05:27;;;;;;;18.35;3.53;;;;;;;;;;5010980;28;20088;-66
2022/01/06 14:08:12;;;;;;;10.27;3.17;;;;;;;;;;5007457;28;20041;-67
2022/01/06 14:10:57;;;;;;;13.48;3.42;;;;;;;;;;5024114;28;20362;-68
2022/01/06 14:13:46;;;;;;;13.57;3.55;;;;;;;;;;5008468;28;20444;-65
2022/01/06 14:16:31;;;;;;;10.73;3.20;;;;;;;;;;5010049;28;20590;-61
2022/01/06 14:19:16;;;;;;;12.77;3.33;;;;;;;;;;4991781;28;20038;-62
2022/01/06 14:22:02;;;;;;;21.65;4.95;;;;;;;;;;4991971;28;20045;-61
2022/01/06 14:24:49;;;;;;;16.55;3.58;;;;;;;;;;4991025;28;20035;-61
2022/01/06 14:27:34;;;;;;;11.48;2.92;;;;;;;;;;4991855;28;20268;-59
2022/01/06 14:30:20;;;;;;;12.60;3.33;;;;;;;;;;5004303;28;20103;-60
2022/01/06 14:33:06;;;;;;;10.82;2.92;;;;;;;;;;5010061;28;20117;-65
2022/01/06 14:35:52;;;;;;;9.07;2.55;;;;;;;;;;4996972;28;20034;-65
2022/01/06 14:38:41;;;;;;;9.15;2.60;;;;;;;;;;4990105;28;20088;-63
2022/01/06 14:41:27;;;;;;;6.80;2.22;;;;;;;;;;4975448;28;20453;-66
2022/01/06 14:44:12;;;;;;;13.23;2.85;;;;;;;;;;4983149;28;20030;-66
2022/01/06 14:46:58;;;;;;;13.23;2.60;;;;;;;;;;4985052;28;20109;-64
2022/01/06 14:49:44;;;;;;;8.75;2.10;;;;;;;;;;4966572;28;20109;-65
2022/01/06 14:52:29;;;;;;;11.88;3.47;;;;;;;;;;4982072;28;20445;-64
2022/01/06 14:55:14;;;;;;;9.93;3.15;;;;;;;;;;4973089;28;20492;-68
2022/01/06 14:57:59;;;;;;;12.55;2.55;;;;;;;;;;4972412;28;20061;-67
2022/01/06 15:00:45;;;;;;;13.52;2.63;;;;;;;;;;4991535;28;20038;-67
2022/01/06 15:03:30;;;;;;;8.45;2.30;;;;;;;;;;4971125;28;20570;-66
2022/01/06 15:06:15;;;;;;;11.50;2.78;;;;;;;;;;4963077;28;20056;-64
2022/01/06 15:09:01;;;;;;;15.77;2.53;;;;;;;;;;4968644;28;21345;-69
2022/01/06 15:11:46;;;;;;;13.60;3.67;;;;;;;;;;4967865;28;20041;-62
2022/01/06 15:14:32;;;;;;;12.45;4.13;;;;;;;;;;4965240;28;20046;-58
2022/01/06 15:17:17;;;;;;;10.43;3.38;;;;;;;;;;4971594;28;20036;-58
2022/01/06 15:20:04;;;;;;;11.57;3.38;;;;;;;;;;4970256;28;20047;-56
2022/01/06 15:22:49;;;;;;;13.40;3.40;;;;;;;;;;4984925;28;20474;-63
2022/01/06 15:25:35;;;;;;;14.00;2.85;;;;;;;;;;4990928;28;20084;-62
2022/01/06 15:28:20;;;;;;;14.73;3.00;;;;;;;;;;4985982;28;20117;-67
2022/01/06 15:31:05;;;;;;;11.43;3.80;;;;;;;;;;4956246;28;20499;-64
2022/01/06 15:33:50;;;;;;;12.40;2.95;;;;;;;;;;4989597;28;20031;-65
2022/01/06 15:36:37;;;;;;;8.25;2.92;;;;;;;;;;4960495;28;20056;-64
2022/01/06 15:39:22;;;;;;;10.02;2.72;;;;;;;;;;4987373;28;20034;-64
2022/01/06 15:42:08;;;;;;;13.50;3.50;;;;;;;;;;4966286;28;20038;-64
2022/01/06 15:44:54;;;;;;;16.00;3.42;;;;;;;;;;4988848;28;20042;-60
2022/01/06 15:47:39;;;;;;;12.25;3.15;;;;;;;;;;4985482;28;20031;-63
2022/01/06 15:50:24;;;;;;;12.77;3.03;;;;;;;;;;4996817;28;20033;-62
2022/01/06 15:53:10;;;;;;;12.57;2.83;;;;;;;;;;4984416;28;20433;-63
2022/01/06 15:55:55;;;;;;;6.82;2.78;;;;;;;;;;4983274;28;20034;-65
2022/01/06 15:58:42;;;;;;;8.13;2.78;;;;;;;;;;5005946;28;20033;-67
2022/01/06 16:07:19;;;;;;;13.20;3.42;;;;;;;;;;4992350;28;20026;-72
2022/01/06 16:10:05;;;;;;;15.48;4.78;;;;;;;;;;4966024;28;20085;-70
2022/01/06 16:12:50;;;;;;;11.85;4.22;;;;;;;;;;4973302;28;20113;-76
2022/01/06 16:15:36;;;;;;;12.25;4.55;;;;;;;;;;4989500;28;20121;-71
2022/01/06 16:18:21;;;;;;;15.93;5.80;;;;;;;;;;5004530;28;20026;-70
2022/01/06 16:21:06;;;;;;;11.93;5.25;;;;;;;;;;4978880;28;20026;-72
2022/01/06 16:23:52;;;;;;;13.10;4.78;;;;;;;;;;4976492;28;20114;-61
2022/01/06 16:26:37;;;;;;;13.93;4.53;;;;;;;;;;4987023;28;20145;-61
2022/01/06 16:29:24;;;;;;;14.00;4.05;;;;;;;;;;4975050;28;20026;-62
2022/01/06 16:32:16;;;;;;;14.23;4.07;;;;;;;;;;5019857;28;20515;-62
2022/01/06 16:35:02;;;;;;;16.45;4.60;;;;;;;;;;4982788;28;20037;-61
2022/01/06 16:37:48;;;;;;;14.18;5.03;;;;;;;;;;5021861;28;20045;-64
2022/01/06 16:40:33;;;;;;;9.15;4.00;;;;;;;;;;4994707;28;20046;-68
2022/01/06 16:43:18;;;;;;;10.38;4.32;;;;;;;;;;4998201;28;20450;-61
2022/01/06 16:46:03;;;;;;;14.30;4.22;;;;;;;;;;4974159;28;20037;-61